Time;durP1;ratioP1;P1;durP2;ratioP2;P2;SDS_P1;SDS_P2;PMS_P1;PMS_P2;Temp;Humidity;BMP_temperature;BMP_pressure;BME280_temperature;BME280_humidity;BME280_pressure;Samples;Min_cycle;Max_cycle;Signal;HPM_P1;HPM_P2
2023/05/29 00:00:09;;;;;;;287.33;118.77;;;;;;;17.83;100.00;99250.09;350985;28;1328;-80
2023/05/29 00:00:20;;;;;;;291.85;119.47;;;;;;;17.82;100.00;99243.94;348924;28;958;-80
2023/05/29 00:00:31;;;;;;;295.45;120.53;;;;;;;17.84;100.00;99249.13;347541;28;1465;-80
2023/05/29 00:00:42;;;;;;;297.40;122.95;;;;;;;17.81;100.00;99247.56;346119;28;843;-80
2023/05/29 00:00:52;;;;;;;296.88;124.47;;;;;;;17.82;100.00;99241.31;346268;28;855;-80
2023/05/29 00:01:03;;;;;;;296.43;124.47;;;;;;;17.81;100.00;99244.06;346458;28;1196;-80
2023/05/29 00:01:13;;;;;;;297.58;125.72;;;;;;;17.84;100.00;99249.13;346197;28;1235;-80
2023/05/29 00:01:24;;;;;;;298.97;125.97;;;;;;;17.84;100.00;99241.19;348869;28;1379;-80
2023/05/29 00:01:35;;;;;;;296.55;123.65;;;;;;;17.84;100.00;99243.84;348703;28;1255;-80
2023/05/29 00:01:46;;;;;;;296.15;124.13;;;;;;;17.84;100.00;99243.84;345930;28;1459;-80
2023/05/29 00:01:56;;;;;;;297.92;124.55;;;;;;;17.83;100.00;99247.44;344837;28;1343;-80
2023/05/29 00:02:07;;;;;;;300.63;127.60;;;;;;;17.83;100.00;99243.00;348842;28;812;-81
2023/05/29 00:02:17;;;;;;;300.42;127.22;;;;;;;17.83;100.00;99243.00;347766;28;1146;-80
2023/05/29 00:02:27;;;;;;;298.37;127.43;;;;;;;17.81;100.00;99238.78;344844;28;1231;-81
2023/05/29 00:02:38;;;;;;;295.65;124.90;;;;;;;17.81;100.00;99238.78;344591;28;1319;-80
2023/05/29 00:02:49;;;;;;;296.47;124.47;;;;;;;17.81;100.00;99236.97;346013;28;1146;-80
2023/05/29 00:03:01;;;;;;;296.83;122.40;;;;;;;17.83;100.00;99242.16;347486;28;1417;-80
2023/05/29 00:03:12;;;;;;;295.77;122.07;;;;;;;17.82;100.00;99245.75;347431;28;1291;-80
2023/05/29 00:03:23;;;;;;;291.48;120.78;;;;;;;17.82;100.00;99240.47;346410;28;1553;-80
2023/05/29 00:03:33;;;;;;;289.30;122.60;;;;;;;17.81;100.00;99239.63;347407;28;1198;-80
2023/05/29 00:03:44;;;;;;;293.40;124.93;;;;;;;17.81;100.00;99241.41;346423;28;1433;-80
2023/05/29 00:03:55;;;;;;;293.67;124.43;;;;;;;17.81;100.00;99249.34;350187;28;1330;-80
2023/05/29 00:04:05;;;;;;;293.17;124.03;;;;;;;17.80;100.00;99243.22;348776;28;1315;-80
2023/05/29 00:04:15;;;;;;;293.83;123.73;;;;;;;17.80;100.00;99234.44;350648;28;1305;-80
2023/05/29 00:04:26;;;;;;;297.40;124.80;;;;;;;17.80;100.00;99242.38;348877;28;1390;-80
2023/05/29 00:04:37;;;;;;;300.63;126.60;;;;;;;17.80;100.00;99243.22;346146;28;1379;-80
2023/05/29 00:04:47;;;;;;;300.02;125.93;;;;;;;17.79;100.00;99240.69;347237;28;1255;-80
2023/05/29 00:04:57;;;;;;;298.57;125.00;;;;;;;17.79;100.00;99245.97;346035;28;1331;-80
2023/05/29 00:05:08;;;;;;;297.30;124.85;;;;;;;17.79;100.00;99241.53;345581;28;1241;-80
2023/05/29 00:05:18;;;;;;;302.07;126.80;;;;;;;17.76;100.00;99240.97;344743;28;1348;-80
2023/05/29 00:05:29;;;;;;;300.17;125.82;;;;;;;17.79;100.00;99243.34;345973;28;1316;-80
2023/05/29 00:05:39;;;;;;;299.43;125.50;;;;;;;17.77;100.00;99242.59;344676;28;1172;-81
2023/05/29 00:05:50;;;;;;;295.13;122.88;;;;;;;17.79;100.00;99243.34;343533;28;1305;-81
2023/05/29 00:06:02;;;;;;;297.40;123.67;;;;;;;17.77;100.00;99238.16;340536;29;1211;-81
2023/05/29 00:06:13;;;;;;;292.73;121.25;;;;;;;17.79;100.00;99240.69;338979;29;1431;-81
2023/05/29 00:06:23;;;;;;;289.25;120.88;;;;;;;17.77;100.00;99238.16;337155;29;1275;-80
2023/05/29 00:06:36;;;;;;;289.55;123.60;;;;;;;17.77;100.00;99243.47;341353;28;1344;-80
2023/05/29 00:06:46;;;;;;;288.42;122.68;;;;;;;17.78;100.00;99244.28;338863;29;1324;-81
2023/05/29 00:06:56;;;;;;;285.58;121.43;;;;;;;17.77;100.00;99237.31;335526;29;1357;-81
2023/05/29 00:07:07;;;;;;;286.97;120.93;;;;;;;17.77;100.00;99239.97;338065;29;1187;-81
2023/05/29 00:07:17;;;;;;;289.60;122.88;;;;;;;17.76;100.00;99235.66;334760;29;1312;-81
2023/05/29 00:07:28;;;;;;;295.07;124.77;;;;;;;17.78;100.00;99236.34;333868;29;1367;-81
2023/05/29 00:07:39;;;;;;;296.45;125.78;;;;;;;17.75;100.00;99236.63;332898;29;1325;-81
2023/05/29 00:07:50;;;;;;;301.98;127.68;;;;;;;17.77;100.00;99242.59;334677;29;1492;-80
2023/05/29 00:08:01;;;;;;;300.75;125.53;;;;;;;17.76;100.00;99235.66;336561;29;1477;-80
2023/05/29 00:08:11;;;;;;;301.57;126.03;;;;;;;17.73;100.00;99236.75;335410;29;833;-80
2023/05/29 00:08:21;;;;;;;298.67;124.78;;;;;;;17.76;100.00;99241.75;334387;29;1643;-80
2023/05/29 00:08:32;;;;;;;304.00;126.90;;;;;;;17.76;100.00;99238.31;336278;29;1574;-80
2023/05/29 00:08:42;;;;;;;303.90;127.20;;;;;;;17.77;100.00;99242.59;334233;29;1923;-80
2023/05/29 00:08:52;;;;;;;302.43;126.83;;;;;;;17.78;100.00;99245.13;334371;29;1471;-80
2023/05/29 00:09:03;;;;;;;293.47;124.87;;;;;;;17.78;100.00;99244.28;334865;29;1383;-80
2023/05/29 00:09:15;;;;;;;288.35;123.00;;;;;;;17.78;100.00;99244.28;332284;29;1288;-81
2023/05/29 00:09:25;;;;;;;285.77;121.95;;;;;;;17.79;100.00;99241.53;338062;29;1437;-80
2023/05/29 00:09:36;;;;;;;292.73;125.80;;;;;;;17.78;100.00;99239.84;335239;29;1154;-80
2023/05/29 00:09:46;;;;;;;295.05;124.57;;;;;;;17.80;100.00;99242.38;330816;29;1587;-80
2023/05/29 00:09:57;;;;;;;295.27;124.90;;;;;;;17.77;100.00;99242.59;330213;29;1812;-80
2023/05/29 00:10:07;;;;;;;296.63;124.68;;;;;;;17.79;100.00;99245.97;330537;29;1354;-80
2023/05/29 00:10:18;;;;;;;297.40;125.10;;;;;;;17.80;100.00;99247.66;328833;29;1778;-80
2023/05/29 00:10:30;;;;;;;300.80;127.10;;;;;;;17.81;100.00;99244.06;330022;29;1891;-80
2023/05/29 00:10:41;;;;;;;298.40;127.88;;;;;;;17.80;100.00;99242.38;325140;30;2764;-81
2023/05/29 00:10:51;;;;;;;298.17;130.93;;;;;;;17.81;100.00;99244.06;327491;30;3018;-80
2023/05/29 00:11:02;;;;;;;298.25;129.77;;;;;;;17.81;100.00;99238.78;324293;30;5134;-80
2023/05/29 00:11:12;;;;;;;301.70;129.43;;;;;;;17.77;100.00;99239.97;320973;30;2985;-80
2023/05/29 00:11:23;;;;;;;299.02;123.90;;;;;;;17.79;100.00;99238.03;325621;30;1229;-80
2023/05/29 00:11:33;;;;;;;296.73;123.40;;;;;;;17.78;100.00;99244.28;325759;30;1355;-80
2023/05/29 00:11:44;;;;;;;295.73;123.07;;;;;;;17.79;100.00;99245.97;317642;30;1898;-81
2023/05/29 00:11:55;;;;;;;295.77;123.82;;;;;;;17.80;100.00;99247.66;315138;31;1137;-80
2023/05/29 00:12:06;;;;;;;297.03;125.30;;;;;;;17.80;100.00;99250.31;313567;31;2184;-80
2023/05/29 00:12:16;;;;;;;297.15;126.40;;;;;;;17.78;100.00;99245.13;313398;31;2347;-80
2023/05/29 00:12:26;;;;;;;297.27;126.13;;;;;;;17.78;100.00;99239.00;309406;31;2557;-80
2023/05/29 00:12:37;;;;;;;296.27;126.40;;;;;;;17.79;100.00;99245.97;313915;31;1270;-80
2023/05/29 00:12:48;;;;;;;293.90;124.78;;;;;;;17.79;100.00;99248.63;312696;31;2814;-80
2023/05/29 00:13:00;;;;;;;295.23;125.97;;;;;;;17.79;100.00;99248.63;313409;31;2819;-80
2023/05/29 00:13:11;;;;;;;293.38;124.32;;;;;;;17.78;100.00;99250.44;316134;31;1460;-80
2023/05/29 00:13:21;;;;;;;295.93;125.87;;;;;;;17.79;100.00;99252.13;314905;31;1814;-80
2023/05/29 00:13:32;;;;;;;298.88;126.30;;;;;;;17.77;100.00;99248.75;315433;31;1244;-80
2023/05/29 00:13:42;;;;;;;301.73;127.53;;;;;;;17.77;100.00;99247.91;314497;31;2310;-80
2023/05/29 00:13:52;;;;;;;301.33;129.77;;;;;;;17.77;100.00;99247.91;310668;31;1217;-82
2023/05/29 00:14:03;;;;;;;303.20;128.88;;;;;;;17.76;100.00;99249.72;310072;31;2975;-81
2023/05/29 00:14:13;;;;;;;302.63;128.10;;;;;;;17.76;100.00;99246.25;308080;31;2563;-80
2023/05/29 00:14:25;;;;;;;299.00;125.78;;;;;;;17.76;100.00;99251.53;305320;32;1367;-81
2023/05/29 00:14:35;;;;;;;294.02;125.45;;;;;;;17.76;100.00;99246.25;304472;32;3430;-81
2023/05/29 00:14:45;;;;;;;297.70;125.70;;;;;;;17.76;100.00;99244.41;304687;32;3738;-81
2023/05/29 00:14:57;;;;;;;299.30;128.13;;;;;;;17.76;100.00;99254.19;304109;32;1352;-81
2023/05/29 00:15:10;;;;;;;301.30;132.10;;;;;;;17.77;100.00;99247.91;301110;32;844;-81
2023/05/29 00:15:20;;;;;;;294.77;129.98;;;;;;;17.76;100.00;99247.06;302960;32;3175;-79
2023/05/29 00:15:31;;;;;;;292.23;127.73;;;;;;;17.77;100.00;99253.19;301717;32;2446;-79
2023/05/29 00:15:41;;;;;;;294.10;126.75;;;;;;;17.77;100.00;99253.19;298507;32;1965;-81
2023/05/29 00:15:52;;;;;;;299.37;128.03;;;;;;;17.77;100.00;99247.91;297112;33;1001;-81
2023/05/29 00:16:03;;;;;;;307.05;128.48;;;;;;;17.75;100.00;99245.41;298805;32;2775;-81
2023/05/29 00:16:13;;;;;;;309.92;131.30;;;;;;;17.77;100.00;99247.91;296644;32;3505;-80
2023/05/29 00:16:24;;;;;;;312.87;133.90;;;;;;;17.75;100.00;99249.84;299123;33;824;-80
2023/05/29 00:16:37;;;;;;;311.15;133.07;;;;;;;17.75;100.00;99249.84;296478;32;3359;-81
2023/05/29 00:16:48;;;;;;;306.63;131.05;;;;;;;17.75;100.00;99248.06;295059;33;4607;-80
2023/05/29 00:16:59;;;;;;;303.98;128.98;;;;;;;17.76;100.00;99256.84;291522;33;4576;-80
2023/05/29 00:17:12;;;;;;;305.27;128.82;;;;;;;17.75;100.00;99250.69;290079;34;1392;-82
2023/05/29 00:17:22;;;;;;;302.35;127.68;;;;;;;17.77;100.00;99247.91;291168;34;867;-81
2023/05/29 00:17:33;;;;;;;300.87;127.00;;;;;;;17.77;100.00;99254.03;293456;33;4719;-82
2023/05/29 00:17:43;;;;;;;294.20;124.90;;;;;;;17.77;100.00;99247.91;293525;33;3023;-81
2023/05/29 00:17:54;;;;;;;296.33;127.10;;;;;;;17.76;100.00;99252.34;293157;33;1076;-81
2023/05/29 00:18:05;;;;;;;296.02;128.73;;;;;;;17.77;100.00;99250.56;287547;33;2775;-81
2023/05/29 00:18:15;;;;;;;301.03;131.67;;;;;;;17.77;100.00;99254.03;282401;34;4200;-81
2023/05/29 00:18:26;;;;;;;303.53;132.03;;;;;;;17.78;100.00;99249.59;283510;34;1389;-81
2023/05/29 00:18:45;;;;;;;301.55;130.45;;;;;;;17.78;100.00;99254.88;281820;35;909;-81
2023/05/29 00:18:55;;;;;;;297.40;127.85;;;;;;;17.78;100.00;99254.88;283625;34;1436;-81
2023/05/29 00:19:06;;;;;;;298.10;127.90;;;;;;;17.78;100.00;99254.88;278655;35;6468;-81
2023/05/29 00:19:19;;;;;;;294.70;127.40;;;;;;;17.77;100.00;99253.19;273429;35;7137;-81
2023/05/29 00:19:30;;;;;;;294.63;129.52;;;;;;;17.78;100.00;99252.25;273459;35;6984;-81
2023/05/29 00:19:40;;;;;;;297.40;131.85;;;;;;;17.78;100.00;99257.53;276464;35;1255;-81
2023/05/29 00:19:50;;;;;;;304.53;134.10;;;;;;;17.78;100.00;99252.25;275619;35;6289;-81
2023/05/29 00:20:03;;;;;;;307.42;135.40;;;;;;;17.77;100.00;99250.56;273083;35;4068;-81
2023/05/29 00:20:13;;;;;;;305.45;134.30;;;;;;;17.78;100.00;99249.59;271389;35;4635;-80
2023/05/29 00:20:24;;;;;;;306.85;134.55;;;;;;;17.78;100.00;99254.88;272674;36;2927;-81
2023/05/29 00:20:34;;;;;;;310.30;134.67;;;;;;;17.78;100.00;99252.25;274324;35;6228;-80
2023/05/29 00:20:48;;;;;;;309.45;133.40;;;;;;;17.78;100.00;99249.59;271382;36;6654;-80
2023/05/29 00:23:05;;;;;;;283.67;112.59;;;;;;;17.77;100.00;99254.03;2490845;27;20294;-81
2023/05/29 00:23:16;;;;;;;285.30;119.38;;;;;;;17.77;100.00;99247.91;351609;28;1301;-81
2023/05/29 00:23:26;;;;;;;287.48;121.72;;;;;;;17.77;100.00;99253.19;350377;28;741;-81
2023/05/29 00:23:38;;;;;;;288.00;122.13;;;;;;;17.77;100.00;99248.75;348804;28;891;-81
2023/05/29 00:23:48;;;;;;;289.42;122.53;;;;;;;17.77;100.00;99245.25;345362;28;1565;-81
2023/05/29 00:23:59;;;;;;;291.47;124.27;;;;;;;17.76;100.00;99255.00;347597;28;1259;-81
2023/05/29 00:24:09;;;;;;;290.00;123.40;;;;;;;17.78;100.00;99254.88;344817;28;1327;-81
2023/05/29 00:24:20;;;;;;;289.23;122.47;;;;;;;17.77;100.00;99250.56;344804;28;1225;-81
2023/05/29 00:24:31;;;;;;;288.42;121.55;;;;;;;17.75;100.00;99244.56;343322;28;1501;-81
2023/05/29 00:24:41;;;;;;;291.13;123.35;;;;;;;17.77;100.00;99250.56;342123;28;1280;-81
2023/05/29 00:24:52;;;;;;;293.90;124.97;;;;;;;17.76;100.00;99246.25;344069;28;1295;-80
2023/05/29 00:25:05;;;;;;;295.90;125.00;;;;;;;17.77;100.00;99255.84;343458;28;1271;-80
2023/05/29 00:25:16;;;;;;;292.45;122.90;;;;;;;17.77;100.00;99245.25;344557;28;1427;-81
2023/05/29 00:25:26;;;;;;;292.27;124.57;;;;;;;17.73;100.00;99247.31;345197;28;1233;-80
2023/05/29 00:25:37;;;;;;;296.53;125.83;;;;;;;17.77;100.00;99250.56;343369;28;1308;-81
2023/05/29 00:25:47;;;;;;;299.20;127.53;;;;;;;17.75;100.00;99244.56;346129;28;800;-81
2023/05/29 00:25:58;;;;;;;298.90;124.93;;;;;;;17.76;100.00;99247.06;344956;28;1386;-81
2023/05/29 00:26:08;;;;;;;298.08;124.70;;;;;;;17.76;100.00;99248.91;346074;28;1317;-81
2023/05/29 00:26:18;;;;;;;297.17;123.87;;;;;;;17.77;100.00;99247.91;346171;28;1337;-81
2023/05/29 00:26:29;;;;;;;298.35;125.38;;;;;;;17.76;100.00;99252.34;347685;28;1413;-81
2023/05/29 00:26:39;;;;;;;299.10;127.03;;;;;;;17.76;100.00;99249.72;344629;28;1389;-82
2023/05/29 00:26:50;;;;;;;298.38;128.73;;;;;;;17.76;100.00;99249.72;346007;28;1279;-81
2023/05/29 00:27:01;;;;;;;294.77;128.03;;;;;;;17.76;100.00;99248.91;345874;28;1029;-81
2023/05/29 00:27:12;;;;;;;291.60;124.63;;;;;;;17.76;100.00;99246.25;345430;28;1391;-81
2023/05/29 00:27:22;;;;;;;293.05;124.05;;;;;;;17.76;100.00;99246.25;344787;28;1497;-81
2023/05/29 00:27:33;;;;;;;294.53;125.17;;;;;;;17.77;100.00;99250.56;347942;28;1168;-81
2023/05/29 00:27:43;;;;;;;295.73;126.63;;;;;;;17.75;100.00;99249.84;345449;28;1192;-81
2023/05/29 00:27:54;;;;;;;292.30;123.15;;;;;;;17.74;100.00;99242.88;347451;28;1336;-82
2023/05/29 00:28:05;;;;;;;291.87;122.27;;;;;;;17.72;100.00;99244.78;344430;28;1593;-81
2023/05/29 00:28:16;;;;;;;292.38;121.93;;;;;;;17.70;100.00;99241.41;345593;28;1362;-81
2023/05/29 00:28:26;;;;;;;295.40;123.50;;;;;;;17.71;100.00;99249.25;345975;28;1242;-82
2023/05/29 00:28:38;;;;;;;297.02;124.95;;;;;;;17.71;100.00;99246.59;345216;28;1228;-81
2023/05/29 00:28:48;;;;;;;301.50;127.32;;;;;;;17.72;100.00;99244.78;340728;29;1467;-81
2023/05/29 00:28:58;;;;;;;299.63;126.78;;;;;;;17.72;100.00;99244.78;343186;28;1326;-81
2023/05/29 00:29:09;;;;;;;297.27;128.07;;;;;;;17.71;100.00;99237.81;341270;28;2423;-81
2023/05/29 00:29:22;;;;;;;294.60;127.28;;;;;;;17.72;100.00;99240.34;340740;28;3096;-81
2023/05/29 00:29:32;;;;;;;296.88;127.63;;;;;;;17.72;100.00;99242.16;341987;28;3217;-81
2023/05/29 00:29:42;;;;;;;295.60;125.45;;;;;;;17.71;100.00;99243.09;339565;29;2899;-81
2023/05/29 00:29:53;;;;;;;293.07;124.93;;;;;;;17.73;100.00;99244.69;339319;29;1673;-81
2023/05/29 00:30:04;;;;;;;292.65;124.78;;;;;;;17.72;100.00;99242.16;335693;29;1264;-81
2023/05/29 00:30:15;;;;;;;295.52;125.88;;;;;;;17.73;100.00;99244.69;338003;29;1344;-81
2023/05/29 00:30:25;;;;;;;296.93;127.13;;;;;;;17.73;100.00;99235.91;338799;28;1464;-81
2023/05/29 00:30:36;;;;;;;298.50;127.82;;;;;;;17.74;100.00;99238.44;338063;29;1241;-81
2023/05/29 00:30:46;;;;;;;298.70;126.77;;;;;;;17.73;100.00;99238.53;335426;29;1282;-81
2023/05/29 00:30:57;;;;;;;297.20;123.72;;;;;;;17.75;100.00;99244.56;338498;29;1428;-81
2023/05/29 00:31:08;;;;;;;299.90;125.18;;;;;;;17.74;100.00;99243.72;336438;29;1391;-82
2023/05/29 00:31:18;;;;;;;299.90;126.63;;;;;;;17.74;100.00;99237.59;330729;29;1324;-81
2023/05/29 00:31:28;;;;;;;302.00;126.97;;;;;;;17.73;100.00;99241.19;334341;29;1311;-81
2023/05/29 00:31:39;;;;;;;298.93;126.03;;;;;;;17.74;100.00;99240.22;335389;29;1594;-81
2023/05/29 00:31:49;;;;;;;297.30;124.32;;;;;;;17.73;100.00;99247.31;334040;29;1216;-81
2023/05/29 00:32:00;;;;;;;294.67;123.73;;;;;;;17.72;100.00;99239.50;330604;29;1982;-81
2023/05/29 00:32:10;;;;;;;295.77;123.88;;;;;;;17.72;100.00;99243.00;330948;29;1237;-81
2023/05/29 00:32:20;;;;;;;295.60;125.60;;;;;;;17.71;100.00;99236.00;331486;29;1170;-82
2023/05/29 00:32:31;;;;;;;295.27;127.07;;;;;;;17.71;100.00;99238.66;330379;29;1339;-82
2023/05/29 00:32:41;;;;;;;293.45;126.95;;;;;;;17.72;100.00;99239.50;326941;30;1268;-81
2023/05/29 00:32:52;;;;;;;293.63;125.33;;;;;;;17.72;100.00;99235.06;329261;30;1203;-81
2023/05/29 00:33:02;;;;;;;295.35;125.10;;;;;;;17.73;100.00;99235.91;330273;29;1448;-81
2023/05/29 00:33:12;;;;;;;300.73;128.87;;;;;;;17.71;100.00;99238.66;327156;29;1821;-81
2023/05/29 00:33:23;;;;;;;306.80;131.77;;;;;;;17.72;100.00;99239.50;325281;30;1776;-81
2023/05/29 00:33:33;;;;;;;309.00;134.23;;;;;;;17.72;100.00;99235.06;325479;30;1350;-81
2023/05/29 00:33:44;;;;;;;305.97;132.20;;;;;;;17.72;100.00;99235.06;326046;30;2194;-81
2023/05/29 00:33:54;;;;;;;300.67;129.88;;;;;;;17.73;100.00;99239.38;327971;29;2237;-81
2023/05/29 00:34:05;;;;;;;296.97;128.73;;;;;;;17.72;100.00;99239.50;326752;30;1244;-81
2023/05/29 00:34:15;;;;;;;295.92;130.35;;;;;;;17.73;100.00;99238.53;324788;30;1747;-81
2023/05/29 00:34:26;;;;;;;297.67;131.63;;;;;;;17.72;100.00;99239.50;323494;30;1337;-81
2023/05/29 00:34:36;;;;;;;300.13;130.85;;;;;;;17.72;100.00;99237.69;324370;30;1313;-81
2023/05/29 00:34:47;;;;;;;302.20;129.15;;;;;;;17.71;100.00;99237.81;326804;30;1506;-81
2023/05/29 00:34:57;;;;;;;302.27;128.70;;;;;;;17.71;100.00;99232.53;325199;30;1835;-81
2023/05/29 00:35:08;;;;;;;301.10;129.03;;;;;;;17.72;100.00;99234.22;323844;30;2237;-81
2023/05/29 00:35:19;;;;;;;300.05;128.32;;;;;;;17.69;100.00;99223.84;319872;30;873;-81
2023/05/29 00:35:29;;;;;;;302.63;127.07;;;;;;;17.71;100.00;99235.16;323223;30;2352;-81
2023/05/29 00:35:40;;;;;;;300.55;126.55;;;;;;;17.71;100.00;99243.94;326683;29;2421;-81
2023/05/29 00:35:51;;;;;;;297.02;126.03;;;;;;;17.68;100.00;99232.75;328077;30;773;-81
2023/05/29 00:36:01;;;;;;;300.33;127.80;;;;;;;17.68;100.00;99233.59;325401;30;2606;-84
2023/05/29 00:36:12;;;;;;;297.75;125.65;;;;;;;17.71;100.00;99237.81;325065;30;2581;-82
2023/05/29 00:36:23;;;;;;;306.00;128.43;;;;;;;17.70;100.00;99230.84;324357;30;1211;-81
2023/05/29 00:36:34;;;;;;;299.25;126.18;;;;;;;17.71;100.00;99238.66;323220;30;1197;-81
2023/05/29 00:36:46;;;;;;;297.50;125.22;;;;;;;17.70;100.00;99236.13;328566;30;1706;-81
2023/05/29 00:36:56;;;;;;;293.13;124.80;;;;;;;17.69;100.00;99237.09;326473;30;2008;-81
2023/05/29 00:37:06;;;;;;;293.67;125.60;;;;;;;17.70;100.00;99236.13;324339;30;1373;-81
2023/05/29 00:37:17;;;;;;;296.87;127.90;;;;;;;17.68;100.00;99230.94;317985;30;2439;-81
2023/05/29 00:37:28;;;;;;;298.10;130.50;;;;;;;17.70;100.00;99230.84;315540;30;2771;-81
2023/05/29 00:37:38;;;;;;;300.17;130.10;;;;;;;17.69;100.00;99231.78;315876;30;2638;-81
2023/05/29 00:37:48;;;;;;;301.92;130.27;;;;;;;17.71;100.00;99237.81;317332;31;1319;-81
2023/05/29 00:37:59;;;;;;;304.27;130.37;;;;;;;17.71;100.00;99232.53;317698;30;3574;-82
2023/05/29 00:38:09;;;;;;;302.02;132.05;;;;;;;17.67;100.00;99229.25;317158;30;3431;-82
2023/05/29 00:38:20;;;;;;;304.27;134.10;;;;;;;17.70;100.00;99233.47;315391;31;2629;-82
2023/05/29 00:38:30;;;;;;;301.53;132.20;;;;;;;17.70;100.00;99230.84;314610;30;3306;-81
2023/05/29 00:38:40;;;;;;;300.50;129.93;;;;;;;17.71;100.00;99237.81;314838;31;2992;-81
2023/05/29 00:38:51;;;;;;;299.60;129.87;;;;;;;17.72;100.00;99239.50;313891;31;2898;-81
2023/05/29 00:39:02;;;;;;;300.85;131.68;;;;;;;17.71;100.00;99233.38;312708;31;3151;-81
2023/05/29 00:39:13;;;;;;;301.10;130.88;;;;;;;17.71;100.00;99232.53;315123;31;2581;-81
2023/05/29 00:39:24;;;;;;;297.27;127.55;;;;;;;17.69;100.00;99229.16;312707;31;3533;-81
2023/05/29 00:39:34;;;;;;;296.13;127.50;;;;;;;17.71;100.00;99237.81;311881;31;1245;-81
2023/05/29 00:39:44;;;;;;;300.77;132.25;;;;;;;17.70;100.00;99230.84;309287;31;4141;-81
2023/05/29 00:39:55;;;;;;;302.90;133.10;;;;;;;17.70;100.00;99233.47;306604;31;4541;-81
2023/05/29 00:40:06;;;;;;;304.75;134.10;;;;;;;17.68;100.00;99236.25;308508;32;1450;-81
2023/05/29 00:40:17;;;;;;;300.83;129.77;;;;;;;17.66;100.00;99229.38;299462;32;4394;-81
2023/05/29 00:40:27;;;;;;;303.27;130.07;;;;;;;17.67;100.00;99236.34;298198;32;5300;-81
2023/05/29 00:40:39;;;;;;;306.27;130.67;;;;;;;17.68;100.00;99235.41;299104;32;4403;-81
2023/05/29 00:40:50;;;;;;;305.23;130.20;;;;;;;17.68;100.00;99232.75;299956;32;1411;-81
2023/05/29 00:41:02;;;;;;;298.63;127.30;;;;;;;17.68;100.00;99235.41;300789;32;3080;-81
2023/05/29 00:41:14;;;;;;;296.05;127.53;;;;;;;17.68;100.00;99235.41;296753;32;3705;-81
2023/05/29 00:41:24;;;;;;;294.50;127.93;;;;;;;17.67;100.00;99242.50;292835;33;4406;-81
2023/05/29 00:41:35;;;;;;;295.67;126.88;;;;;;;17.67;100.00;99241.66;293327;33;1376;-81
2023/05/29 00:41:45;;;;;;;300.57;129.17;;;;;;;17.67;100.00;99242.50;289225;33;5097;-81
2023/05/29 00:41:56;;;;;;;299.83;130.50;;;;;;;17.66;100.00;99234.66;288160;33;5375;-81
2023/05/29 00:42:07;;;;;;;303.37;131.83;;;;;;;17.69;100.00;99245.03;286626;34;1206;-81
2023/05/29 00:42:17;;;;;;;300.98;132.02;;;;;;;17.69;100.00;99239.72;282474;35;1387;-82
2023/05/29 00:42:28;;;;;;;296.58;129.35;;;;;;;17.69;100.00;99239.72;280737;34;5818;-82
2023/05/29 00:42:38;;;;;;;298.80;129.77;;;;;;;17.69;100.00;99245.03;278915;35;6444;-82
2023/05/29 00:42:49;;;;;;;300.50;130.27;;;;;;;17.69;100.00;99245.03;277253;35;1348;-81
2023/05/29 00:42:59;;;;;;;304.67;132.23;;;;;;;17.67;100.00;99234.56;278997;35;6421;-82
2023/05/29 00:43:09;;;;;;;302.30;131.50;;;;;;;17.67;100.00;99234.56;279131;35;4322;-82
2023/05/29 00:43:20;;;;;;;304.75;133.27;;;;;;;17.70;100.00;99241.41;279453;35;1354;-82
2023/05/29 00:43:30;;;;;;;307.03;134.17;;;;;;;17.68;100.00;99238.03;272932;35;5322;-79
2023/05/29 00:43:41;;;;;;;310.15;134.38;;;;;;;17.70;100.00;99238.78;271204;35;7466;-79
2023/05/29 00:43:51;;;;;;;308.73;133.52;;;;;;;17.70;100.00;99241.41;271255;36;1270;-79
2023/05/29 00:44:04;;;;;;;306.27;133.70;;;;;;;17.70;100.00;99241.41;267929;36;8439;-79
2023/05/29 00:46:16;;;;;;;283.11;117.77;;;;;;;17.70;100.00;99239.63;2486194;27;20767;-80
2023/05/29 00:46:26;;;;;;;286.75;122.10;;;;;;;17.70;100.00;99236.13;348834;28;1361;-80
2023/05/29 00:46:36;;;;;;;295.05;131.82;;;;;;;17.69;100.00;99235.28;346583;28;808;-80
2023/05/29 00:46:52;;;;;;;301.10;134.37;;;;;;;17.71;100.00;99237.81;345805;28;1238;-80
2023/05/29 00:47:03;;;;;;;293.98;126.78;;;;;;;17.71;100.00;99232.53;346390;28;1407;-81
2023/05/29 00:47:13;;;;;;;292.90;125.53;;;;;;;17.70;100.00;99233.47;350230;28;1430;-81
2023/05/29 00:47:24;;;;;;;295.10;125.17;;;;;;;17.71;100.00;99232.53;348870;28;1350;-80
2023/05/29 00:47:34;;;;;;;296.88;124.93;;;;;;;17.71;100.00;99235.16;347488;28;1362;-80
2023/05/29 00:47:45;;;;;;;295.90;124.33;;;;;;;17.71;100.00;99232.53;345999;28;1089;-80
2023/05/29 00:47:55;;;;;;;291.98;124.38;;;;;;;17.70;100.00;99236.13;347188;28;1315;-80
2023/05/29 00:48:06;;;;;;;292.63;126.60;;;;;;;17.69;100.00;99229.16;347466;28;959;-80
2023/05/29 00:48:16;;;;;;;291.98;126.47;;;;;;;17.71;100.00;99237.81;346234;28;880;-80
2023/05/29 00:48:27;;;;;;;293.30;127.33;;;;;;;17.72;100.00;99234.22;346372;28;1249;-80
2023/05/29 00:48:37;;;;;;;293.85;126.93;;;;;;;17.71;100.00;99232.53;347470;28;1376;-80
2023/05/29 00:48:48;;;;;;;298.53;128.37;;;;;;;17.72;100.00;99234.22;345905;28;1418;-80
2023/05/29 00:48:59;;;;;;;300.02;128.68;;;;;;;17.69;100.00;99230.00;346149;28;1276;-80
2023/05/29 00:49:11;;;;;;;298.07;128.77;;;;;;;17.70;100.00;99230.84;344778;28;1167;-80
2023/05/29 00:49:21;;;;;;;299.27;130.07;;;;;;;17.71;100.00;99237.81;343421;28;1310;-81
2023/05/29 00:49:32;;;;;;;301.42;130.82;;;;;;;17.70;100.00;99233.47;346080;28;1353;-80
2023/05/29 00:49:42;;;;;;;302.27;131.57;;;;;;;17.71;100.00;99233.38;345944;28;1329;-80
2023/05/29 00:49:53;;;;;;;299.00;129.50;;;;;;;17.71;100.00;99227.22;343655;28;1344;-80
2023/05/29 00:50:04;;;;;;;293.33;127.22;;;;;;;17.70;100.00;99230.84;345990;28;1323;-80
2023/05/29 00:50:15;;;;;;;290.67;125.28;;;;;;;17.70;100.00;99236.13;347459;28;1209;-80
2023/05/29 00:50:26;;;;;;;293.60;127.43;;;;;;;17.68;100.00;99232.75;347130;28;1194;-80
2023/05/29 00:50:37;;;;;;;297.42;129.00;;;;;;;17.67;100.00;99231.91;344735;28;1309;-80
2023/05/29 00:50:48;;;;;;;299.43;128.70;;;;;;;17.67;100.00;99231.06;341886;28;1332;-80
2023/05/29 00:50:58;;;;;;;295.98;127.72;;;;;;;17.65;100.00;99225.88;343387;28;1299;-80
2023/05/29 00:51:10;;;;;;;296.40;128.83;;;;;;;17.66;100.00;99232.03;345104;28;1309;-80
2023/05/29 00:51:21;;;;;;;298.98;128.80;;;;;;;17.67;100.00;99231.06;343494;28;1007;-80
2023/05/29 00:51:32;;;;;;;301.87;127.23;;;;;;;17.64;100.00;99226.81;346185;28;1265;-80
2023/05/29 00:51:42;;;;;;;299.77;125.88;;;;;;;17.66;100.00;99230.22;344858;28;1394;-80
2023/05/29 00:51:54;;;;;;;299.88;125.65;;;;;;;17.66;100.00;99229.38;342794;28;1156;-80
2023/05/29 00:52:06;;;;;;;300.88;127.93;;;;;;;17.66;100.00;99229.38;342270;28;1479;-80
2023/05/29 00:52:17;;;;;;;303.00;131.30;;;;;;;17.64;100.00;99232.09;343368;28;859;-80
2023/05/29 00:52:27;;;;;;;301.63;131.07;;;;;;;17.61;100.00;99222.59;343310;28;1178;-80
2023/05/29 00:52:37;;;;;;;297.75;130.82;;;;;;;17.62;100.00;99220.78;343095;28;1341;-80
2023/05/29 00:52:48;;;;;;;299.63;131.93;;;;;;;17.63;100.00;99233.06;344674;28;1204;-80
2023/05/29 00:53:01;;;;;;;299.53;131.40;;;;;;;17.62;100.00;99221.63;343477;28;1018;-80
2023/05/29 00:53:12;;;;;;;296.00;128.73;;;;;;;17.59;100.00;99224.50;342267;28;1334;-80